Time;durP1;ratioP1;P1;durP2;ratioP2;P2;SDS_P1;SDS_P2;PMS_P1;PMS_P2;Temp;Humidity;BMP_temperature;BMP_pressure;BME280_temperature;BME280_humidity;BME280_pressure;Samples;Min_cycle;Max_cycle;Signal;HPM_P1;HPM_P2
2023/01/08 06:00:03;;;;;;;2.60;2.27;;;9.50;97.20;;;;;;1729342;28;20192;-72
2023/01/08 06:00:54;;;;;;;3.20;2.10;;;9.40;97.20;;;;;;1728148;28;20220;-72
2023/01/08 06:01:45;;;;;;;2.08;1.98;;;9.40;97.20;;;;;;1727232;28;20200;-72
2023/01/08 06:02:36;;;;;;;2.20;2.00;;;9.50;97.20;;;;;;1727149;28;20295;-73
2023/01/08 06:03:28;;;;;;;2.43;2.23;;;9.50;97.20;;;;;;1730307;28;20228;-73
2023/01/08 06:04:19;;;;;;;2.70;2.45;;;9.40;97.20;;;;;;1730023;28;20207;-73
2023/01/08 06:05:10;;;;;;;2.10;2.00;;;9.40;97.20;;;;;;1731201;28;20194;-72
2023/01/08 06:06:03;;;;;;;2.30;2.10;;;9.40;97.20;;;;;;1727257;28;20236;-73
2023/01/08 06:06:55;;;;;;;2.28;1.83;;;9.40;97.20;;;;;;1726791;28;20204;-72
2023/01/08 06:07:46;;;;;;;2.20;2.00;;;9.40;97.20;;;;;;1730129;28;20197;-72
2023/01/08 06:08:37;;;;;;;2.33;2.13;;;9.40;97.20;;;;;;1733801;28;20204;-73
2023/01/08 06:09:28;;;;;;;2.30;2.20;;;9.40;97.20;;;;;;1734483;28;20204;-72
2023/01/08 06:10:20;;;;;;;2.77;2.57;;;9.40;97.20;;;;;;1734083;28;20707;-73
2023/01/08 06:11:11;;;;;;;2.50;2.30;;;9.40;97.20;;;;;;1734382;28;20689;-73
2023/01/08 06:12:02;;;;;;;2.60;2.20;;;9.40;97.20;;;;;;1734196;28;20596;-72
2023/01/08 06:12:53;;;;;;;2.70;2.20;;;9.40;97.20;;;;;;1734479;28;20446;-73
2023/01/08 06:13:45;;;;;;;2.47;2.10;;;9.40;97.20;;;;;;1734211;28;20203;-73
2023/01/08 06:14:36;;;;;;;1.83;1.73;;;9.50;97.20;;;;;;1733477;28;20208;-72
2023/01/08 06:15:29;;;;;;;3.30;2.60;;;9.40;97.20;;;;;;1734254;28;20202;-73
2023/01/08 06:16:19;;;;;;;2.83;2.20;;;9.40;97.20;;;;;;1734446;28;20238;-72
2023/01/08 06:17:11;;;;;;;1.77;1.67;;;9.40;97.20;;;;;;1735940;28;20208;-72
2023/01/08 06:18:02;;;;;;;3.47;2.30;;;9.40;97.20;;;;;;1734295;28;20475;-72
2023/01/08 06:18:54;;;;;;;2.80;2.50;;;9.40;97.20;;;;;;1733703;28;20200;-73
2023/01/08 06:19:46;;;;;;;2.83;2.50;;;9.40;97.20;;;;;;1734273;28;20466;-72
2023/01/08 06:20:37;;;;;;;2.83;2.63;;;9.40;97.20;;;;;;1734266;28;20230;-72
2023/01/08 06:21:28;;;;;;;2.55;2.30;;;9.40;97.20;;;;;;1732384;28;20219;-73
2023/01/08 06:22:20;;;;;;;2.10;2.00;;;9.40;97.20;;;;;;1730109;28;20184;-72
2023/01/08 06:23:11;;;;;;;2.03;1.83;;;9.30;97.20;;;;;;1730745;28;20219;-72
2023/01/08 06:24:03;;;;;;;2.85;2.22;;;9.30;97.20;;;;;;1734372;28;20199;-72
2023/01/08 06:24:54;;;;;;;2.38;2.00;;;9.30;97.20;;;;;;1734148;28;20207;-72
2023/01/08 06:25:52;;;;;;;2.53;2.27;;;9.30;97.20;;;;;;1734210;28;20206;-72
2023/01/08 06:26:42;;;;;;;2.42;1.85;;;9.30;97.20;;;;;;1734092;28;20246;-73
2023/01/08 06:27:34;;;;;;;2.73;1.80;;;9.30;97.20;;;;;;1734340;28;20199;-73
2023/01/08 06:28:25;;;;;;;2.08;1.88;;;9.30;97.20;;;;;;1734320;28;20204;-73
2023/01/08 06:29:17;;;;;;;2.45;2.30;;;9.30;97.20;;;;;;1733666;28;20254;-72
2023/01/08 06:30:08;;;;;;;2.53;2.20;;;9.30;97.20;;;;;;1734089;28;20200;-73
2023/01/08 06:31:02;;;;;;;2.10;1.88;;;9.40;97.20;;;;;;1732040;28;20207;-74
2023/01/08 06:31:53;;;;;;;2.35;2.17;;;9.40;97.20;;;;;;1732995;28;20583;-73
2023/01/08 06:32:45;;;;;;;2.70;2.30;;;9.40;97.20;;;;;;1727069;28;20604;-72
2023/01/08 06:33:36;;;;;;;2.60;2.00;;;9.40;97.20;;;;;;1729902;28;20218;-72
2023/01/08 06:34:27;;;;;;;1.80;1.70;;;9.40;97.20;;;;;;1729903;28;20253;-71
2023/01/08 06:35:18;;;;;;;1.70;1.60;;;9.40;97.20;;;;;;1727679;28;20203;-71
2023/01/08 06:36:10;;;;;;;1.73;1.63;;;9.40;97.20;;;;;;1728239;28;20291;-72
2023/01/08 06:37:01;;;;;;;1.63;1.52;;;9.40;97.20;;;;;;1727041;28;20776;-72
2023/01/08 06:37:54;;;;;;;2.83;2.20;;;9.40;97.20;;;;;;1726890;28;20941;-72
2023/01/08 06:38:44;;;;;;;2.35;2.00;;;9.40;97.20;;;;;;1725938;28;20631;-72
2023/01/08 06:39:36;;;;;;;1.83;1.73;;;9.40;97.20;;;;;;1728720;28;20615;-72
2023/01/08 06:40:27;;;;;;;2.72;1.80;;;9.30;97.20;;;;;;1726964;28;20220;-72
2023/01/08 06:41:19;;;;;;;1.50;1.40;;;9.30;97.20;;;;;;1727513;28;20222;-72
2023/01/08 06:42:09;;;;;;;1.90;1.70;;;9.30;97.20;;;;;;1727363;28;20447;-73
2023/01/08 06:43:02;;;;;;;2.10;1.80;;;9.30;97.20;;;;;;1727629;28;20410;-72
2023/01/08 06:43:52;;;;;;;2.22;1.60;;;9.30;97.20;;;;;;1727409;28;20201;-72
2023/01/08 06:44:44;;;;;;;1.73;1.63;;;9.30;97.20;;;;;;1727603;28;20200;-72
2023/01/08 06:45:35;;;;;;;2.13;1.92;;;9.30;97.20;;;;;;1727272;28;20247;-72
2023/01/08 06:46:28;;;;;;;1.63;1.53;;;9.30;97.20;;;;;;1729121;28;20196;-72
2023/01/08 06:47:19;;;;;;;1.95;1.30;;;9.30;97.20;;;;;;1733259;28;20203;-72
2023/01/08 06:48:11;;;;;;;1.93;1.57;;;9.30;97.20;;;;;;1734052;28;20203;-72
2023/01/08 06:49:01;;;;;;;1.50;1.40;;;9.30;97.20;;;;;;1733750;28;20612;-72
2023/01/08 06:49:53;;;;;;;1.80;1.50;;;9.30;97.20;;;;;;1733978;28;20200;-72
2023/01/08 06:50:44;;;;;;;2.42;1.60;;;9.20;97.20;;;;;;1734104;28;20223;-72
2023/01/08 06:51:36;;;;;;;1.53;1.43;;;9.20;97.20;;;;;;1734205;28;20205;-72
2023/01/08 06:52:27;;;;;;;1.50;1.40;;;9.20;97.20;;;;;;1734116;28;20258;-72
2023/01/08 06:53:18;;;;;;;1.73;1.30;;;9.20;97.20;;;;;;1734145;28;20196;-72
2023/01/08 06:54:09;;;;;;;2.05;1.42;;;9.20;97.20;;;;;;1734232;28;20576;-72
2023/01/08 06:55:01;;;;;;;1.60;1.50;;;9.20;97.20;;;;;;1734346;28;20557;-71
2023/01/08 06:55:55;;;;;;;1.70;1.50;;;9.20;97.20;;;;;;1734022;28;20207;-72
2023/01/08 06:56:48;;;;;;;2.20;1.60;;;9.20;97.20;;;;;;1733907;28;20643;-72
2023/01/08 06:57:40;;;;;;;2.13;1.73;;;9.20;97.20;;;;;;1734141;28;20210;-71
2023/01/08 06:58:32;;;;;;;2.40;2.20;;;9.20;97.20;;;;;;1733994;28;20543;-72
2023/01/08 06:59:22;;;;;;;2.90;2.20;;;9.20;97.20;;;;;;1733591;28;20204;-72
2023/01/08 07:00:16;;;;;;;2.03;1.80;;;9.20;97.20;;;;;;1733856;28;20206;-71
2023/01/08 07:01:11;;;;;;;2.28;2.08;;;9.10;97.20;;;;;;1734027;28;20287;-72
2023/01/08 07:02:04;;;;;;;3.03;2.05;;;9.10;97.20;;;;;;1734140;28;20203;-71
2023/01/08 07:02:55;;;;;;;2.22;2.05;;;9.10;97.20;;;;;;1727478;28;20659;-72
2023/01/08 07:03:46;;;;;;;2.47;1.85;;;9.10;97.20;;;;;;1726995;28;20575;-72
2023/01/08 07:04:37;;;;;;;1.77;1.67;;;9.10;97.20;;;;;;1729165;28;20199;-72
2023/01/08 07:05:29;;;;;;;2.70;1.97;;;9.10;97.20;;;;;;1726423;28;20208;-72
2023/01/08 07:06:21;;;;;;;2.22;1.98;;;9.10;97.20;;;;;;1729702;28;20274;-71
2023/01/08 07:07:13;;;;;;;2.22;1.70;;;9.10;97.20;;;;;;1729351;28;20196;-72
2023/01/08 07:08:04;;;;;;;1.52;1.42;;;9.10;97.20;;;;;;1729849;28;20208;-72
2023/01/08 07:08:57;;;;;;;2.07;1.93;;;9.10;97.20;;;;;;1729317;28;20204;-72
2023/01/08 07:09:47;;;;;;;2.28;1.80;;;9.10;97.20;;;;;;1729798;28;20478;-72
2023/01/08 07:10:39;;;;;;;1.80;1.70;;;9.10;97.20;;;;;;1729491;28;20215;-71
2023/01/08 07:11:30;;;;;;;1.73;1.63;;;9.10;97.20;;;;;;1729934;28;20200;-72
2023/01/08 07:12:21;;;;;;;1.70;1.60;;;9.00;97.20;;;;;;1728171;28;20283;-72
2023/01/08 07:13:12;;;;;;;2.28;1.60;;;9.00;97.20;;;;;;1726477;28;20701;-72
2023/01/08 07:14:04;;;;;;;1.37;1.27;;;9.00;97.20;;;;;;1726692;28;20342;-71
2023/01/08 07:14:55;;;;;;;1.90;1.65;;;9.00;97.20;;;;;;1729393;28;20199;-72
2023/01/08 07:15:46;;;;;;;2.00;1.83;;;9.00;97.20;;;;;;1729732;28;20203;-71
2023/01/08 07:16:37;;;;;;;1.42;1.33;;;9.00;97.20;;;;;;1729701;28;20474;-72
2023/01/08 07:17:32;;;;;;;1.53;1.37;;;9.00;97.20;;;;;;1729783;28;20204;-72
2023/01/08 07:18:23;;;;;;;1.45;1.35;;;9.00;97.20;;;;;;1729851;28;20200;-72
2023/01/08 07:19:14;;;;;;;1.73;1.63;;;9.00;97.20;;;;;;1729308;28;20191;-72
2023/01/08 07:20:08;;;;;;;8.30;1.83;;;9.00;97.20;;;;;;1732028;28;20203;-72
2023/01/08 07:21:00;;;;;;;1.63;1.52;;;9.00;97.20;;;;;;1734109;28;20212;-72
2023/01/08 07:21:51;;;;;;;2.50;2.30;;;9.00;97.20;;;;;;1733929;28;20207;-72
2023/01/08 07:22:42;;;;;;;2.20;2.00;;;9.00;97.20;;;;;;1734005;28;20212;-72
2023/01/08 07:23:33;;;;;;;3.90;3.50;;;9.00;97.20;;;;;;1734032;28;20200;-74
2023/01/08 07:24:25;;;;;;;3.90;3.53;;;9.00;97.20;;;;;;1734071;28;20202;-74
2023/01/08 07:25:16;;;;;;;3.40;3.10;;;9.00;97.20;;;;;;1734104;28;20625;-74
2023/01/08 07:26:08;;;;;;;3.20;2.90;;;9.00;97.20;;;;;;1731648;28;21009;-75
2023/01/08 07:26:58;;;;;;;2.25;2.15;;;9.00;97.20;;;;;;1726406;28;20200;-74
2023/01/08 07:27:50;;;;;;;1.97;1.87;;;9.00;97.20;;;;;;1726874;28;20218;-74
2023/01/08 07:28:41;;;;;;;1.90;1.70;;;8.90;97.20;;;;;;1726394;28;20201;-74
2023/01/08 07:29:33;;;;;;;2.53;2.00;;;9.00;97.20;;;;;;1727012;28;20204;-74
2023/01/08 07:30:24;;;;;;;1.70;1.60;;;8.90;97.20;;;;;;1727198;28;20201;-74
2023/01/08 07:31:15;;;;;;;1.87;1.57;;;9.00;97.20;;;;;;1727233;28;20208;-74
2023/01/08 07:32:06;;;;;;;2.58;1.48;;;9.00;97.20;;;;;;1724795;28;20451;-73
2023/01/08 07:33:01;;;;;;;1.60;1.50;;;9.00;97.20;;;;;;1720886;28;20315;-73
2023/01/08 07:33:51;;;;;;;1.90;1.75;;;9.00;97.20;;;;;;1721729;28;20601;-74
2023/01/08 07:34:43;;;;;;;1.90;1.60;;;9.00;97.20;;;;;;1722088;28;20574;-73
2023/01/08 07:35:34;;;;;;;1.90;1.48;;;9.00;97.20;;;;;;1721723;28;20559;-73
2023/01/08 07:36:26;;;;;;;1.73;1.63;;;9.00;97.20;;;;;;1721857;28;20259;-74
2023/01/08 07:37:16;;;;;;;1.60;1.50;;;9.00;97.20;;;;;;1721746;28;20451;-73
2023/01/08 07:38:08;;;;;;;1.40;1.30;;;9.00;97.20;;;;;;1722140;28;20677;-73
2023/01/08 07:38:59;;;;;;;1.60;1.50;;;9.00;97.20;;;;;;1721518;28;20208;-73
2023/01/08 07:39:51;;;;;;;1.40;1.30;;;8.90;97.20;;;;;;1721797;28;20205;-73
2023/01/08 07:40:42;;;;;;;1.60;1.50;;;8.90;97.20;;;;;;1721837;28;20251;-73
2023/01/08 07:41:34;;;;;;;1.83;1.50;;;8.90;97.20;;;;;;1722243;28;20292;-73
2023/01/08 07:42:25;;;;;;;1.50;1.40;;;9.00;97.20;;;;;;1723164;28;20667;-73
2023/01/08 07:43:16;;;;;;;2.10;1.90;;;8.90;97.20;;;;;;1721340;28;20587;-74
2023/01/08 07:44:07;;;;;;;1.40;1.30;;;9.00;97.20;;;;;;1724349;28;20447;-73
2023/01/08 07:44:59;;;;;;;1.60;1.23;;;9.00;97.20;;;;;;1728674;28;20188;-74
2023/01/08 07:45:50;;;;;;;1.60;1.50;;;9.00;97.20;;;;;;1728656;28;20209;-73
2023/01/08 07:46:41;;;;;;;1.70;1.60;;;8.90;97.20;;;;;;1728410;28;20228;-73
2023/01/08 07:47:32;;;;;;;1.75;1.50;;;9.00;97.20;;;;;;1728610;28;20447;-74
2023/01/08 07:48:25;;;;;;;1.73;1.63;;;8.90;97.20;;;;;;1728725;28;20215;-73
2023/01/08 07:49:16;;;;;;;1.55;1.40;;;9.00;97.20;;;;;;1728135;28;20216;-74
2023/01/08 07:50:08;;;;;;;1.50;1.40;;;9.00;97.20;;;;;;1728569;28;20204;-73
2023/01/08 07:51:03;;;;;;;1.90;1.80;;;9.00;97.20;;;;;;1728762;28;20578;-73
2023/01/08 07:51:55;;;;;;;2.88;1.80;;;9.00;97.20;;;;;;1728927;28;20200;-73
2023/01/08 07:52:46;;;;;;;1.85;1.60;;;9.00;97.20;;;;;;1728504;28;20224;-74
2023/01/08 07:53:38;;;;;;;1.60;1.50;;;9.00;97.20;;;;;;1728515;28;20207;-73
2023/01/08 07:54:28;;;;;;;2.78;1.52;;;9.00;97.20;;;;;;1728462;28;20250;-74
2023/01/08 07:55:20;;;;;;;1.40;1.30;;;9.00;97.20;;;;;;1728685;28;20323;-73
2023/01/08 07:56:12;;;;;;;1.42;1.33;;;9.00;97.20;;;;;;1728634;28;20814;-73
2023/01/08 07:57:03;;;;;;;1.40;1.30;;;9.00;97.20;;;;;;1728362;28;20228;-74
2023/01/08 07:57:54;;;;;;;2.20;1.77;;;9.00;97.20;;;;;;1728520;28;20200;-73
2023/01/08 07:58:45;;;;;;;1.90;1.50;;;9.00;97.20;;;;;;1721150;28;20451;-74
2023/01/08 07:59:37;;;;;;;3.20;1.30;;;9.00;97.20;;;;;;1721085;28;20197;-73
2023/01/08 08:00:28;;;;;;;2.67;1.60;;;9.00;97.20;;;;;;1724071;28;20216;-73
2023/01/08 08:01:19;;;;;;;1.90;1.37;;;9.00;97.20;;;;;;1724363;28;20203;-73
2023/01/08 08:02:10;;;;;;;2.05;1.60;;;9.00;97.20;;;;;;1723992;28;20211;-74
2023/01/08 08:03:03;;;;;;;1.57;1.33;;;9.00;97.20;;;;;;1724034;28;20713;-73
2023/01/08 08:03:56;;;;;;;1.80;1.42;;;9.00;97.20;;;;;;1722432;28;20463;-73
2023/01/08 08:04:47;;;;;;;2.30;1.70;;;9.00;97.20;;;;;;1721207;28;20197;-73
2023/01/08 08:05:39;;;;;;;1.40;1.30;;;9.00;97.20;;;;;;1721639;28;20193;-73
2023/01/08 08:06:30;;;;;;;1.73;1.23;;;9.00;97.20;;;;;;1721736;28;20201;-73
2023/01/08 08:07:22;;;;;;;1.87;1.40;;;9.00;97.20;;;;;;1721620;28;20205;-73
2023/01/08 08:08:13;;;;;;;1.52;1.42;;;9.00;97.20;;;;;;1721786;28;20698;-74
2023/01/08 08:09:04;;;;;;;1.65;1.33;;;9.00;97.20;;;;;;1721506;28;20587;-73
2023/01/08 08:09:55;;;;;;;3.20;1.65;;;9.00;97.20;;;;;;1721706;28;20830;-72
2023/01/08 08:10:47;;;;;;;1.43;1.33;;;9.00;97.20;;;;;;1721537;28;20692;-73
2023/01/08 08:11:38;;;;;;;1.90;1.48;;;9.00;97.20;;;;;;1721626;28;20304;-73
2023/01/08 08:12:30;;;;;;;1.50;1.40;;;9.00;97.20;;;;;;1721546;28;20201;-73
2023/01/08 08:13:21;;;;;;;1.70;1.40;;;9.00;97.20;;;;;;1721636;28;20208;-73
2023/01/08 08:14:12;;;;;;;1.47;1.37;;;9.00;97.20;;;;;;1721941;28;20213;-72
2023/01/08 08:15:04;;;;;;;1.70;1.55;;;9.00;97.20;;;;;;1724891;28;20211;-73
2023/01/08 08:16:00;;;;;;;1.88;1.50;;;9.00;97.20;;;;;;1728580;28;20207;-73
2023/01/08 08:16:51;;;;;;;2.53;2.33;;;9.00;97.20;;;;;;1728301;28;20212;-73
2023/01/08 08:17:45;;;;;;;1.30;1.20;;;9.00;97.20;;;;;;1728469;28;20303;-73
2023/01/08 08:18:36;;;;;;;3.17;1.63;;;9.00;97.20;;;;;;1727878;28;20208;-73
2023/01/08 08:19:29;;;;;;;3.73;1.60;;;9.00;97.20;;;;;;1728590;28;20204;-73
2023/01/08 08:20:20;;;;;;;1.60;1.50;;;9.00;97.20;;;;;;1728626;28;20201;-72
2023/01/08 08:21:13;;;;;;;2.03;1.83;;;9.00;97.20;;;;;;1728479;28;20200;-73
2023/01/08 08:22:03;;;;;;;1.65;1.55;;;9.00;97.20;;;;;;1728396;28;20216;-74
2023/01/08 08:23:00;;;;;;;2.40;1.90;;;9.00;97.20;;;;;;1728407;28;20686;-73
2023/01/08 08:23:52;;;;;;;1.63;1.35;;;9.00;97.20;;;;;;1729382;28;20235;-73
2023/01/08 08:24:43;;;;;;;1.35;1.20;;;9.00;97.20;;;;;;1728494;28;20211;-73
2023/01/08 08:25:35;;;;;;;1.90;1.70;;;9.00;97.20;;;;;;1728570;28;20845;-73
2023/01/08 08:26:26;;;;;;;1.42;1.33;;;9.00;97.20;;;;;;1728398;28;20221;-72
2023/01/08 08:27:18;;;;;;;1.37;1.27;;;9.00;97.20;;;;;;1728150;28;20288;-73
2023/01/08 08:28:10;;;;;;;2.22;1.40;;;9.00;97.20;;;;;;1728510;28;20835;-73
2023/01/08 08:29:02;;;;;;;2.38;1.50;;;9.00;97.20;;;;;;1728117;28;20716;-73
2023/01/08 08:29:53;;;;;;;1.40;1.30;;;9.00;97.20;;;;;;1728495;28;20208;-73
2023/01/08 08:30:45;;;;;;;1.40;1.30;;;9.00;97.20;;;;;;1726555;28;20217;-73
2023/01/08 08:31:36;;;;;;;2.75;1.25;;;9.00;97.20;;;;;;1723086;28;20216;-73
2023/01/08 08:32:28;;;;;;;3.25;1.90;;;9.00;97.20;;;;;;1723958;28;20209;-72
2023/01/08 08:33:19;;;;;;;2.00;1.80;;;9.00;97.20;;;;;;1723808;28;20232;-72
2023/01/08 08:34:10;;;;;;;2.17;1.80;;;9.00;97.20;;;;;;1723813;28;20591;-72
2023/01/08 08:35:04;;;;;;;1.60;1.40;;;9.00;97.20;;;;;;1724025;28;20653;-72
2023/01/08 08:35:55;;;;;;;1.30;1.20;;;9.00;97.20;;;;;;1723915;28;20677;-73
2023/01/08 08:36:47;;;;;;;2.70;1.20;;;9.00;97.20;;;;;;1721365;28;20818;-73
2023/01/08 08:37:37;;;;;;;1.65;1.40;;;9.00;97.20;;;;;;1721430;28;20698;-73
2023/01/08 08:38:29;;;;;;;1.60;1.30;;;9.00;97.20;;;;;;1721338;28;20723;-73
2023/01/08 08:39:20;;;;;;;2.30;2.10;;;9.00;97.20;;;;;;1720811;28;20212;-73
2023/01/08 08:40:12;;;;;;;1.60;1.43;;;9.00;97.20;;;;;;1721240;28;20197;-73
2023/01/08 08:41:03;;;;;;;1.58;1.48;;;9.00;97.20;;;;;;1721381;28;20444;-73
2023/01/08 08:41:55;;;;;;;2.10;1.90;;;9.00;97.20;;;;;;1721234;28;20201;-73
2023/01/08 08:42:45;;;;;;;1.35;1.25;;;9.00;97.20;;;;;;1721447;28;20448;-74
2023/01/08 08:43:37;;;;;;;1.60;1.50;;;9.00;97.20;;;;;;1721481;28;20211;-73
2023/01/08 08:44:28;;;;;;;1.73;1.63;;;9.00;97.20;;;;;;1720907;28;20205;-73
2023/01/08 08:45:19;;;;;;;1.50;1.40;;;9.00;97.20;;;;;;1727876;28;20195;-73
2023/01/08 08:46:11;;;;;;;1.60;1.50;;;9.10;97.20;;;;;;1728068;28;20197;-73
2023/01/08 08:47:05;;;;;;;2.40;1.25;;;9.10;97.20;;;;;;1727969;28;20200;-73
2023/01/08 08:47:57;;;;;;;1.55;1.45;;;9.00;97.20;;;;;;1728149;28;20255;-73
2023/01/08 08:48:48;;;;;;;2.15;1.48;;;9.00;97.20;;;;;;1727491;28;20243;-73
2023/01/08 08:49:39;;;;;;;1.60;1.30;;;9.00;97.20;;;;;;1728204;28;20210;-72
2023/01/08 08:50:32;;;;;;;1.27;1.17;;;9.00;97.20;;;;;;1727836;28;20269;-73
2023/01/08 08:51:23;;;;;;;2.33;1.50;;;9.00;97.20;;;;;;1728138;28;20208;-73
2023/01/08 08:52:14;;;;;;;1.42;1.33;;;9.00;97.20;;;;;;1728054;28;20207;-73
2023/01/08 08:53:06;;;;;;;1.67;1.53;;;9.00;97.20;;;;;;1728021;28;20210;-73
2023/01/08 08:53:57;;;;;;;1.52;1.42;;;9.00;97.20;;;;;;1728177;28;20208;-73
2023/01/08 08:54:49;;;;;;;2.83;1.63;;;9.10;97.20;;;;;;1728043;28;20224;-73
2023/01/08 08:55:39;;;;;;;1.60;1.50;;;9.10;97.20;;;;;;1728087;28;20211;-73
2023/01/08 08:56:31;;;;;;;1.47;1.37;;;9.10;97.20;;;;;;1727923;28;20215;-73
2023/01/08 08:57:23;;;;;;;1.90;1.55;;;9.10;97.20;;;;;;1727961;28;20205;-74
2023/01/08 08:58:14;;;;;;;1.50;1.40;;;9.10;97.20;;;;;;1723767;28;20248;-73
2023/01/08 08:59:05;;;;;;;1.40;1.30;;;9.10;97.20;;;;;;1720798;28;20208;-73
2023/01/08 08:59:57;;;;;;;1.60;1.50;;;9.10;97.20;;;;;;1723876;28;20205;-73
2023/01/08 09:00:47;;;;;;;1.30;1.20;;;9.10;97.20;;;;;;1727932;28;20769;-73
2023/01/08 09:01:39;;;;;;;2.03;1.83;;;9.10;97.20;;;;;;1723569;28;20620;-73
2023/01/08 09:02:30;;;;;;;1.40;1.30;;;9.10;97.20;;;;;;1720744;28;20212;-73
2023/01/08 09:03:22;;;;;;;1.38;1.27;;;9.10;97.20;;;;;;1720480;28;20186;-72
2023/01/08 09:04:13;;;;;;;1.55;1.40;;;9.10;97.20;;;;;;1720758;28;20220;-73
2023/01/08 09:05:05;;;;;;;3.93;1.70;;;9.10;97.20;;;;;;1722020;28;20252;-72
2023/01/08 09:05:57;;;;;;;1.50;1.40;;;9.10;97.20;;;;;;1720494;28;20201;-73
2023/01/08 09:06:49;;;;;;;2.65;1.50;;;9.10;97.20;;;;;;1727321;28;20266;-74
2023/01/08 09:07:39;;;;;;;1.52;1.42;;;9.10;97.20;;;;;;1728017;28;20204;-73
2023/01/08 09:08:31;;;;;;;1.40;1.30;;;9.10;97.20;;;;;;1728000;28;20196;-74
2023/01/08 09:09:22;;;;;;;3.28;1.52;;;9.10;97.20;;;;;;1727581;28;20620;-73
2023/01/08 09:10:14;;;;;;;1.43;1.10;;;9.10;97.20;;;;;;1727704;28;20568;-74
2023/01/08 09:11:05;;;;;;;1.27;1.17;;;9.10;97.20;;;;;;1727865;28;20610;-74
2023/01/08 09:11:56;;;;;;;1.55;1.45;;;9.10;97.20;;;;;;1727959;28;20204;-73
2023/01/08 09:12:48;;;;;;;1.50;1.20;;;9.10;97.20;;;;;;1725684;28;20672;-73
2023/01/08 09:13:39;;;;;;;1.63;1.50;;;9.20;97.20;;;;;;1720503;28;20491;-73
2023/01/08 09:14:30;;;;;;;1.70;1.60;;;9.20;97.20;;;;;;1720510;28;20203;-74
2023/01/08 09:15:21;;;;;;;3.22;1.40;;;9.20;97.20;;;;;;1723469;28;20612;-74
2023/01/08 09:16:13;;;;;;;2.08;1.67;;;9.20;97.20;;;;;;1723364;28;20211;-74
2023/01/08 09:17:04;;;;;;;1.50;1.40;;;9.20;97.20;;;;;;1721849;28;20247;-73
2023/01/08 09:17:57;;;;;;;1.63;1.33;;;9.20;97.20;;;;;;1722366;28;20262;-74
2023/01/08 09:18:48;;;;;;;1.80;1.70;;;9.20;97.20;;;;;;1723010;28;20205;-72
2023/01/08 09:19:40;;;;;;;1.85;1.60;;;9.20;97.20;;;;;;1723833;28;20189;-73
2023/01/08 09:20:30;;;;;;;2.20;1.58;;;9.20;97.20;;;;;;1723530;28;20228;-73
2023/01/08 09:21:24;;;;;;;3.83;1.57;;;9.20;97.20;;;;;;1725199;28;20279;-73
2023/01/08 09:22:14;;;;;;;1.80;1.70;;;9.30;97.20;;;;;;1727895;28;20453;-72
2023/01/08 09:23:06;;;;;;;1.43;1.33;;;9.30;97.20;;;;;;1727910;28;20206;-73
2023/01/08 09:23:57;;;;;;;1.83;1.67;;;9.30;97.20;;;;;;1727865;28;20260;-73
2023/01/08 09:24:49;;;;;;;1.57;1.40;;;9.30;97.20;;;;;;1727871;28;20251;-72
2023/01/08 09:25:39;;;;;;;1.48;1.38;;;9.30;97.20;;;;;;1727917;28;20219;-73
2023/01/08 09:26:31;;;;;;;1.20;1.10;;;9.40;97.20;;;;;;1728240;28;20200;-73
2023/01/08 09:27:23;;;;;;;2.28;1.50;;;9.40;97.20;;;;;;1727870;28;20216;-73
2023/01/08 09:28:16;;;;;;;1.58;1.25;;;9.40;97.20;;;;;;1727965;28;20204;-73
2023/01/08 09:29:07;;;;;;;2.10;1.90;;;9.40;97.20;;;;;;1727338;28;20252;-73
2023/01/08 09:29:58;;;;;;;1.50;1.40;;;9.40;97.20;;;;;;1727768;28;20204;-73
2023/01/08 09:30:50;;;;;;;1.50;1.27;;;9.50;97.20;;;;;;1726773;28;20228;-73
2023/01/08 09:31:41;;;;;;;1.30;1.20;;;9.50;97.20;;;;;;1720797;28;20690;-73
2023/01/08 09:32:32;;;;;;;1.60;1.50;;;9.50;97.20;;;;;;1720239;28;20624;-73
2023/01/08 09:33:23;;;;;;;1.75;1.65;;;9.50;97.20;;;;;;1720234;28;20193;-73
2023/01/08 09:34:15;;;;;;;2.50;1.50;;;9.50;97.20;;;;;;1726950;28;20296;-72
2023/01/08 09:35:07;;;;;;;1.83;1.38;;;9.50;97.20;;;;;;1727823;28;20204;-73
2023/01/08 09:35:59;;;;;;;2.30;1.60;;;9.60;97.20;;;;;;1727908;28;20207;-73
2023/01/08 09:36:51;;;;;;;1.73;1.50;;;9.60;97.20;;;;;;1727460;28;20211;-73
2023/01/08 09:37:43;;;;;;;1.92;1.30;;;9.60;97.20;;;;;;1727835;28;20204;-74
2023/01/08 09:38:35;;;;;;;1.40;1.30;;;9.60;97.20;;;;;;1727625;28;20207;-72
2023/01/08 09:39:26;;;;;;;2.38;1.63;;;9.60;97.20;;;;;;1727781;28;20205;-73
2023/01/08 09:40:18;;;;;;;1.23;1.13;;;9.60;97.20;;;;;;1725446;28;20196;-73
2023/01/08 09:41:11;;;;;;;2.50;1.50;;;9.60;97.20;;;;;;1723451;28;20452;-73
2023/01/08 09:42:05;;;;;;;4.40;1.55;;;9.60;97.20;;;;;;1727923;28;20259;-74
2023/01/08 09:42:59;;;;;;;1.60;1.40;;;9.70;97.20;;;;;;1727878;28;20201;-74
2023/01/08 09:43:53;;;;;;;1.55;1.30;;;9.70;97.20;;;;;;1727608;28;20579;-73
2023/01/08 09:44:45;;;;;;;2.13;1.50;;;9.60;97.20;;;;;;1725177;28;20212;-73
2023/01/08 09:45:39;;;;;;;1.80;1.60;;;9.60;97.20;;;;;;1720940;28;20280;-73
2023/01/08 09:46:31;;;;;;;2.13;1.42;;;9.60;97.20;;;;;;1720859;28;20236;-74
2023/01/08 09:47:26;;;;;;;1.70;1.40;;;9.60;97.20;;;;;;1720927;28;20659;-73
2023/01/08 09:48:20;;;;;;;2.42;1.40;;;9.60;97.20;;;;;;1720737;28;20190;-74
2023/01/08 09:49:18;;;;;;;1.90;1.80;;;9.60;97.20;;;;;;1722882;28;20200;-73
2023/01/08 09:50:12;;;;;;;2.10;1.77;;;9.60;97.20;;;;;;1723028;28;20208;-74
2023/01/08 09:51:06;;;;;;;2.47;1.50;;;9.60;97.20;;;;;;1726131;28;20192;-75
2023/01/08 09:51:59;;;;;;;1.55;1.40;;;9.60;97.20;;;;;;1725943;28;20236;-74
2023/01/08 09:52:51;;;;;;;2.33;1.75;;;9.60;97.20;;;;;;1720534;28;20197;-73
2023/01/08 09:53:43;;;;;;;2.38;1.67;;;9.60;97.20;;;;;;1723209;28;20228;-73
2023/01/08 09:54:35;;;;;;;1.90;1.70;;;9.50;97.20;;;;;;1723128;28;20292;-74
2023/01/08 09:55:30;;;;;;;1.50;1.40;;;9.50;97.20;;;;;;1723401;28;20228;-74
2023/01/08 09:56:21;;;;;;;1.48;1.27;;;9.60;97.20;;;;;;1721373;28;20827;-74
2023/01/08 09:57:15;;;;;;;1.27;1.17;;;9.60;97.20;;;;;;1722936;28;20280;-74
2023/01/08 09:58:16;;;;;;;1.55;1.35;;;9.60;97.20;;;;;;1725441;28;20228;-73
2023/01/08 09:59:12;;;;;;;4.00;1.23;;;9.60;97.20;;;;;;1726920;28;20244;-74
2023/01/08 10:00:09;;;;;;;1.52;1.42;;;9.60;97.20;;;;;;1727586;28;20208;-73
2023/01/08 10:01:02;;;;;;;1.60;1.50;;;9.60;97.20;;;;;;1727677;28;20204;-73
2023/01/08 10:01:53;;;;;;;1.65;1.55;;;9.60;97.20;;;;;;1727559;28;20216;-74
2023/01/08 10:02:46;;;;;;;2.97;1.60;;;9.60;97.20;;;;;;1727647;28;20219;-73
2023/01/08 10:03:40;;;;;;;1.92;1.45;;;9.60;97.20;;;;;;1727610;28;20451;-74
2023/01/08 10:04:33;;;;;;;1.52;1.40;;;9.60;97.20;;;;;;1727481;28;20291;-74
2023/01/08 10:05:25;;;;;;;1.90;1.80;;;9.60;97.20;;;;;;1727685;28;20704;-73
2023/01/08 10:06:18;;;;;;;1.50;1.40;;;9.60;97.20;;;;;;1727593;28;20565;-74
2023/01/08 10:07:20;;;;;;;1.60;1.48;;;9.60;97.20;;;;;;1726129;28;20609;-73
2023/01/08 10:08:14;;;;;;;1.70;1.60;;;9.60;97.20;;;;;;1721792;28;21088;-74
2023/01/08 10:09:06;;;;;;;1.85;1.65;;;9.70;97.20;;;;;;1722791;28;20200;-73
2023/01/08 10:09:56;;;;;;;1.40;1.30;;;9.70;97.20;;;;;;1725908;28;20197;-74
2023/01/08 10:10:48;;;;;;;1.47;1.37;;;9.70;97.20;;;;;;1726676;28;20226;-74
2023/01/08 10:11:42;;;;;;;1.40;1.30;;;9.70;97.20;;;;;;1722825;28;20197;-73
2023/01/08 10:12:34;;;;;;;2.00;1.40;;;9.70;97.20;;;;;;1721600;28;20267;-74
2023/01/08 10:13:24;;;;;;;1.02;0.93;;;9.70;97.20;;;;;;1726806;28;20200;-74
2023/01/08 10:14:22;;;;;;;1.13;1.03;;;9.70;97.20;;;;;;1724745;28;20196;-73
2023/01/08 10:15:17;;;;;;;1.77;1.40;;;9.70;97.20;;;;;;1720795;28;20206;-74
2023/01/08 10:16:15;;;;;;;1.90;1.60;;;9.70;97.20;;;;;;1720698;28;20212;-74
2023/01/08 10:17:15;;;;;;;2.10;1.30;;;9.70;97.20;;;;;;1725465;28;20185;-73
2023/01/08 10:18:10;;;;;;;1.30;1.08;;;9.80;97.20;;;;;;1727616;28;20200;-73
2023/01/08 10:19:04;;;;;;;1.67;1.50;;;9.70;97.20;;;;;;1726025;28;20227;-74
2023/01/08 10:19:55;;;;;;;2.20;1.30;;;9.80;97.20;;;;;;1725665;28;20204;-75
2023/01/08 10:20:47;;;;;;;1.77;1.67;;;9.80;97.20;;;;;;1727544;28;20226;-75
2023/01/08 10:21:40;;;;;;;1.40;1.30;;;9.80;97.20;;;;;;1729393;28;20917;-73
2023/01/08 10:22:33;;;;;;;1.65;1.27;;;9.80;97.20;;;;;;1732439;28;20646;-75
2023/01/08 10:23:48;;;;;;;1.30;1.05;;;9.80;97.20;;;;;;1736268;28;20193;-73
2023/01/08 10:25:15;;;;;;;2.05;1.50;;;9.80;97.20;;;;;;1735803;28;20177;-73
2023/01/08 10:26:06;;;;;;;2.00;1.83;;;9.80;97.20;;;;;;1720009;28;20330;-71
2023/01/08 10:27:07;;;;;;;1.63;1.52;;;9.80;97.20;;;;;;1736202;28;20189;-72
2023/01/08 10:28:00;;;;;;;1.48;1.38;;;9.80;97.20;;;;;;1727235;28;20291;-73
2023/01/08 10:28:51;;;;;;;2.75;1.38;;;9.80;97.20;;;;;;1726903;28;20202;-73
2023/01/08 10:29:43;;;;;;;1.50;1.30;;;9.90;97.20;;;;;;1727663;28;20216;-74
2023/01/08 10:30:37;;;;;;;1.80;1.40;;;9.90;97.20;;;;;;1727243;28;20220;-74
2023/01/08 10:31:28;;;;;;;1.20;1.10;;;9.90;97.20;;;;;;1727438;28;20239;-73
2023/01/08 10:32:27;;;;;;;1.10;1.00;;;9.90;97.20;;;;;;1727530;28;20200;-73
2023/01/08 10:33:22;;;;;;;1.42;1.10;;;9.90;97.20;;;;;;1727665;28;20787;-73
2023/01/08 10:34:25;;;;;;;1.20;1.10;;;9.90;97.20;;;;;;1727401;28;20251;-74
2023/01/08 10:35:20;;;;;;;2.13;1.25;;;9.90;97.20;;;;;;1727650;28;20185;-74